Atlanta, Georgia
Traffic Map
Current Weather Conditions
Atlanta, Georgia
Scattered Clouds
Scattered Clouds
30°
Feels Like: 31°
Wind Chill: 30° Ceiling: Unl
Heat Index: 31° Visibility: 10mi
Dew Point: 19° Wind: 3mph
Humidity: 51% Direction: 330° (NNW)
Pressure: 30.03in Gusts: 0mph
Raw Report DataKATL 041352Z 33003KT 10SM FEW200 SCT250 30/19 A3003 RMK AO2 SLP156 T03000189
Traffic Incident Summary
Active as of:
Severity:
Category:
InformationThere was an issue retrieving the traffic information for this location. Please try a different location or try again shortly.
Advertisements
Track Severe Weather on mobile